sensor_id;sensor_type;location;lat;lon;timestamp;P1;durP1;ratioP1;P2;durP2;ratioP2
11608;SDS011;5860;52.018;8.536;2024-03-22T00:01:44;36.40;;;24.27;;
11608;SDS011;5860;52.018;8.536;2024-03-22T00:04:11;37.10;;;25.27;;
11608;SDS011;5860;52.018;8.536;2024-03-22T00:06:38;35.70;;;25.23;;
11608;SDS011;5860;52.018;8.536;2024-03-22T00:09:05;34.50;;;24.43;;
11608;SDS011;5860;52.018;8.536;2024-03-22T00:11:31;36.10;;;24.37;;
11608;SDS011;5860;52.018;8.536;2024-03-22T00:13:57;35.43;;;25.23;;
11608;SDS011;5860;52.018;8.536;2024-03-22T00:16:23;37.97;;;25.57;;
11608;SDS011;5860;52.018;8.536;2024-03-22T00:18:49;36.27;;;26.47;;
11608;SDS011;5860;52.018;8.536;2024-03-22T00:21:15;36.77;;;27.63;;
11608;SDS011;5860;52.018;8.536;2024-03-22T00:23:42;40.60;;;26.20;;
11608;SDS011;5860;52.018;8.536;2024-03-22T00:26:08;38.20;;;26.10;;
11608;SDS011;5860;52.018;8.536;2024-03-22T00:28:35;36.30;;;24.70;;
11608;SDS011;5860;52.018;8.536;2024-03-22T00:31:00;44.20;;;26.77;;
11608;SDS011;5860;52.018;8.536;2024-03-22T00:33:26;39.00;;;26.70;;
11608;SDS011;5860;52.018;8.536;2024-03-22T00:35:52;38.80;;;27.67;;
11608;SDS011;5860;52.018;8.536;2024-03-22T00:38:18;36.43;;;25.90;;
11608;SDS011;5860;52.018;8.536;2024-03-22T00:40:44;37.83;;;27.20;;
11608;SDS011;5860;52.018;8.536;2024-03-22T00:43:10;38.10;;;26.43;;
11608;SDS011;5860;52.018;8.536;2024-03-22T00:45:36;39.97;;;27.93;;
11608;SDS011;5860;52.018;8.536;2024-03-22T00:48:02;39.67;;;27.63;;
11608;SDS011;5860;52.018;8.536;2024-03-22T00:50:28;40.97;;;27.97;;
11608;SDS011;5860;52.018;8.536;2024-03-22T00:52:54;43.63;;;29.27;;
11608;SDS011;5860;52.018;8.536;2024-03-22T00:55:23;40.27;;;27.67;;
11608;SDS011;5860;52.018;8.536;2024-03-22T00:57:49;42.03;;;28.17;;
11608;SDS011;5860;52.018;8.536;2024-03-22T01:00:16;41.27;;;28.53;;
11608;SDS011;5860;52.018;8.536;2024-03-22T01:02:42;43.43;;;28.87;;
11608;SDS011;5860;52.018;8.536;2024-03-22T01:05:09;43.50;;;28.80;;
11608;SDS011;5860;52.018;8.536;2024-03-22T01:07:35;37.33;;;27.43;;
11608;SDS011;5860;52.018;8.536;2024-03-22T01:10:02;40.63;;;28.57;;
11608;SDS011;5860;52.018;8.536;2024-03-22T01:12:30;44.80;;;29.27;;
11608;SDS011;5860;52.018;8.536;2024-03-22T01:14:56;41.37;;;27.33;;
11608;SDS011;5860;52.018;8.536;2024-03-22T01:17:23;46.67;;;29.90;;
11608;SDS011;5860;52.018;8.536;2024-03-22T01:19:49;45.20;;;27.83;;
11608;SDS011;5860;52.018;8.536;2024-03-22T01:22:16;46.03;;;29.83;;
11608;SDS011;5860;52.018;8.536;2024-03-22T01:24:43;39.87;;;28.10;;
11608;SDS011;5860;52.018;8.536;2024-03-22T01:27:10;41.83;;;28.30;;
11608;SDS011;5860;52.018;8.536;2024-03-22T01:29:36;45.17;;;28.87;;
11608;SDS011;5860;52.018;8.536;2024-03-22T01:32:02;40.20;;;27.87;;
11608;SDS011;5860;52.018;8.536;2024-03-22T01:34:28;41.43;;;28.23;;
11608;SDS011;5860;52.018;8.536;2024-03-22T01:36:54;40.80;;;28.53;;
11608;SDS011;5860;52.018;8.536;2024-03-22T01:39:20;43.00;;;29.17;;
11608;SDS011;5860;52.018;8.536;2024-03-22T01:41:50;42.70;;;28.67;;
11608;SDS011;5860;52.018;8.536;2024-03-22T01:44:16;42.40;;;28.07;;
11608;SDS011;5860;52.018;8.536;2024-03-22T01:46:43;46.20;;;30.10;;
11608;SDS011;5860;52.018;8.536;2024-03-22T01:49:12;43.57;;;29.13;;
11608;SDS011;5860;52.018;8.536;2024-03-22T01:51:42;40.90;;;27.50;;
11608;SDS011;5860;52.018;8.536;2024-03-22T01:54:09;39.60;;;27.43;;
11608;SDS011;5860;52.018;8.536;2024-03-22T01:56:36;42.37;;;27.10;;
11608;SDS011;5860;52.018;8.536;2024-03-22T01:59:06;45.00;;;29.43;;
11608;SDS011;5860;52.018;8.536;2024-03-22T02:01:33;46.30;;;29.57;;
11608;SDS011;5860;52.018;8.536;2024-03-22T02:04:00;47.03;;;28.57;;
11608;SDS011;5860;52.018;8.536;2024-03-22T02:06:26;45.03;;;29.80;;
11608;SDS011;5860;52.018;8.536;2024-03-22T02:08:52;45.73;;;29.53;;
11608;SDS011;5860;52.018;8.536;2024-03-22T02:11:19;50.83;;;30.00;;
11608;SDS011;5860;52.018;8.536;2024-03-22T02:13:45;44.00;;;28.90;;
11608;SDS011;5860;52.018;8.536;2024-03-22T02:16:11;45.07;;;28.10;;
11608;SDS011;5860;52.018;8.536;2024-03-22T02:18:37;51.23;;;28.53;;
11608;SDS011;5860;52.018;8.536;2024-03-22T02:21:03;43.00;;;28.27;;
11608;SDS011;5860;52.018;8.536;2024-03-22T02:23:33;43.30;;;28.03;;
11608;SDS011;5860;52.018;8.536;2024-03-22T02:26:00;40.20;;;26.13;;
11608;SDS011;5860;52.018;8.536;2024-03-22T02:28:27;43.57;;;27.03;;
11608;SDS011;5860;52.018;8.536;2024-03-22T02:30:53;48.17;;;28.63;;
11608;SDS011;5860;52.018;8.536;2024-03-22T02:33:19;40.80;;;27.13;;
11608;SDS011;5860;52.018;8.536;2024-03-22T02:35:46;43.67;;;27.97;;
11608;SDS011;5860;52.018;8.536;2024-03-22T02:38:12;48.27;;;28.43;;
11608;SDS011;5860;52.018;8.536;2024-03-22T02:40:38;43.20;;;27.03;;
11608;SDS011;5860;52.018;8.536;2024-03-22T02:43:04;44.00;;;27.87;;
11608;SDS011;5860;52.018;8.536;2024-03-22T02:45:30;44.37;;;27.23;;
11608;SDS011;5860;52.018;8.536;2024-03-22T02:47:57;47.33;;;27.57;;
11608;SDS011;5860;52.018;8.536;2024-03-22T02:50:23;43.83;;;27.70;;
11608;SDS011;5860;52.018;8.536;2024-03-22T02:52:49;42.17;;;26.63;;
11608;SDS011;5860;52.018;8.536;2024-03-22T02:55:15;46.23;;;28.10;;
11608;SDS011;5860;52.018;8.536;2024-03-22T02:57:41;45.23;;;28.33;;
11608;SDS011;5860;52.018;8.536;2024-03-22T03:00:08;45.10;;;27.20;;
11608;SDS011;5860;52.018;8.536;2024-03-22T03:02:34;40.30;;;26.73;;
11608;SDS011;5860;52.018;8.536;2024-03-22T03:05:01;42.97;;;27.13;;
11608;SDS011;5860;52.018;8.536;2024-03-22T03:07:27;39.63;;;24.67;;
11608;SDS011;5860;52.018;8.536;2024-03-22T03:09:53;42.30;;;26.73;;
11608;SDS011;5860;52.018;8.536;2024-03-22T03:12:19;44.93;;;27.53;;
11608;SDS011;5860;52.018;8.536;2024-03-22T03:14:45;43.73;;;27.63;;
11608;SDS011;5860;52.018;8.536;2024-03-22T03:17:11;50.90;;;26.93;;
11608;SDS011;5860;52.018;8.536;2024-03-22T03:19:37;47.20;;;27.47;;
11608;SDS011;5860;52.018;8.536;2024-03-22T03:22:03;44.50;;;26.83;;
11608;SDS011;5860;52.018;8.536;2024-03-22T03:24:29;48.63;;;26.80;;
11608;SDS011;5860;52.018;8.536;2024-03-22T03:26:55;43.33;;;27.73;;
11608;SDS011;5860;52.018;8.536;2024-03-22T03:29:21;46.07;;;27.23;;
11608;SDS011;5860;52.018;8.536;2024-03-22T03:31:47;40.23;;;25.97;;
11608;SDS011;5860;52.018;8.536;2024-03-22T03:34:14;45.13;;;26.43;;
11608;SDS011;5860;52.018;8.536;2024-03-22T03:36:40;43.10;;;27.03;;
11608;SDS011;5860;52.018;8.536;2024-03-22T03:39:06;44.20;;;26.43;;
11608;SDS011;5860;52.018;8.536;2024-03-22T03:41:32;48.20;;;28.13;;
11608;SDS011;5860;52.018;8.536;2024-03-22T03:43:58;46.67;;;27.20;;
11608;SDS011;5860;52.018;8.536;2024-03-22T03:46:24;44.90;;;26.27;;
11608;SDS011;5860;52.018;8.536;2024-03-22T03:48:50;43.77;;;27.17;;
11608;SDS011;5860;52.018;8.536;2024-03-22T03:51:15;46.17;;;27.27;;
11608;SDS011;5860;52.018;8.536;2024-03-22T03:53:41;44.47;;;27.73;;
11608;SDS011;5860;52.018;8.536;2024-03-22T03:56:07;44.43;;;26.67;;
11608;SDS011;5860;52.018;8.536;2024-03-22T03:58:33;46.97;;;25.70;;
11608;SDS011;5860;52.018;8.536;2024-03-22T04:01:04;44.07;;;26.60;;
11608;SDS011;5860;52.018;8.536;2024-03-22T04:03:33;43.83;;;26.67;;
11608;SDS011;5860;52.018;8.536;2024-03-22T04:05:59;40.30;;;25.57;;
11608;SDS011;5860;52.018;8.536;2024-03-22T04:08:26;44.47;;;26.30;;
11608;SDS011;5860;52.018;8.536;2024-03-22T04:10:52;40.10;;;25.03;;
11608;SDS011;5860;52.018;8.536;2024-03-22T04:13:18;44.33;;;26.67;;
11608;SDS011;5860;52.018;8.536;2024-03-22T04:15:44;42.13;;;26.20;;
11608;SDS011;5860;52.018;8.536;2024-03-22T04:18:10;42.47;;;25.97;;
11608;SDS011;5860;52.018;8.536;2024-03-22T04:20:36;41.77;;;24.70;;
11608;SDS011;5860;52.018;8.536;2024-03-22T04:23:03;40.50;;;24.77;;
11608;SDS011;5860;52.018;8.536;2024-03-22T04:25:29;40.63;;;24.90;;
11608;SDS011;5860;52.018;8.536;2024-03-22T04:27:55;41.20;;;24.83;;
11608;SDS011;5860;52.018;8.536;2024-03-22T04:30:21;42.60;;;25.37;;
11608;SDS011;5860;52.018;8.536;2024-03-22T04:32:46;40.70;;;25.73;;
11608;SDS011;5860;52.018;8.536;2024-03-22T04:35:12;40.20;;;25.17;;
11608;SDS011;5860;52.018;8.536;2024-03-22T04:37:39;42.27;;;25.50;;
11608;SDS011;5860;52.018;8.536;2024-03-22T04:40:05;41.23;;;24.93;;
11608;SDS011;5860;52.018;8.536;2024-03-22T04:42:31;40.43;;;24.90;;
11608;SDS011;5860;52.018;8.536;2024-03-22T04:44:57;39.07;;;24.17;;
11608;SDS011;5860;52.018;8.536;2024-03-22T04:47:23;45.87;;;24.10;;
11608;SDS011;5860;52.018;8.536;2024-03-22T04:49:49;42.40;;;24.27;;
11608;SDS011;5860;52.018;8.536;2024-03-22T04:52:15;38.87;;;24.37;;
11608;SDS011;5860;52.018;8.536;2024-03-22T04:54:41;41.13;;;24.10;;
11608;SDS011;5860;52.018;8.536;2024-03-22T04:57:07;43.13;;;25.53;;
11608;SDS011;5860;52.018;8.536;2024-03-22T04:59:33;41.03;;;24.47;;
11608;SDS011;5860;52.018;8.536;2024-03-22T05:01:58;40.50;;;23.23;;
11608;SDS011;5860;52.018;8.536;2024-03-22T05:04:24;43.83;;;25.73;;
11608;SDS011;5860;52.018;8.536;2024-03-22T05:06:50;44.47;;;27.10;;
11608;SDS011;5860;52.018;8.536;2024-03-22T05:09:16;42.73;;;25.07;;
11608;SDS011;5860;52.018;8.536;2024-03-22T05:11:42;40.07;;;24.53;;
11608;SDS011;5860;52.018;8.536;2024-03-22T05:14:08;39.20;;;25.30;;
11608;SDS011;5860;52.018;8.536;2024-03-22T05:16:34;38.30;;;23.27;;
11608;SDS011;5860;52.018;8.536;2024-03-22T05:19:00;43.07;;;25.90;;
11608;SDS011;5860;52.018;8.536;2024-03-22T05:21:26;37.77;;;24.00;;
11608;SDS011;5860;52.018;8.536;2024-03-22T05:23:52;40.90;;;24.40;;
11608;SDS011;5860;52.018;8.536;2024-03-22T05:26:18;44.60;;;24.70;;
11608;SDS011;5860;52.018;8.536;2024-03-22T05:28:46;43.00;;;24.90;;
11608;SDS011;5860;52.018;8.536;2024-03-22T05:31:12;43.07;;;24.47;;
11608;SDS011;5860;52.018;8.536;2024-03-22T05:33:38;41.77;;;25.43;;
11608;SDS011;5860;52.018;8.536;2024-03-22T05:36:04;42.50;;;23.73;;
11608;SDS011;5860;52.018;8.536;2024-03-22T05:38:30;41.67;;;22.97;;
11608;SDS011;5860;52.018;8.536;2024-03-22T05:40:55;37.80;;;22.70;;
11608;SDS011;5860;52.018;8.536;2024-03-22T05:43:21;40.60;;;22.93;;
11608;SDS011;5860;52.018;8.536;2024-03-22T05:45:47;38.83;;;23.73;;
11608;SDS011;5860;52.018;8.536;2024-03-22T05:48:13;38.50;;;22.73;;
11608;SDS011;5860;52.018;8.536;2024-03-22T05:50:40;40.03;;;22.33;;
11608;SDS011;5860;52.018;8.536;2024-03-22T05:53:06;40.17;;;23.37;;
11608;SDS011;5860;52.018;8.536;2024-03-22T05:55:32;38.67;;;22.30;;
11608;SDS011;5860;52.018;8.536;2024-03-22T05:57:58;36.27;;;21.63;;
11608;SDS011;5860;52.018;8.536;2024-03-22T06:00:24;38.37;;;21.93;;
11608;SDS011;5860;52.018;8.536;2024-03-22T06:02:51;36.63;;;22.30;;
11608;SDS011;5860;52.018;8.536;2024-03-22T06:05:17;37.90;;;22.23;;
11608;SDS011;5860;52.018;8.536;2024-03-22T06:07:43;37.57;;;21.87;;
11608;SDS011;5860;52.018;8.536;2024-03-22T06:10:11;37.70;;;21.87;;
11608;SDS011;5860;52.018;8.536;2024-03-22T06:12:37;34.07;;;21.47;;
11608;SDS011;5860;52.018;8.536;2024-03-22T06:15:03;32.97;;;21.20;;
11608;SDS011;5860;52.018;8.536;2024-03-22T06:17:32;35.77;;;21.70;;
11608;SDS011;5860;52.018;8.536;2024-03-22T06:19:59;35.23;;;20.70;;
11608;SDS011;5860;52.018;8.536;2024-03-22T06:22:25;35.53;;;20.87;;
11608;SDS011;5860;52.018;8.536;2024-03-22T06:24:51;37.30;;;20.80;;
11608;SDS011;5860;52.018;8.536;2024-03-22T06:27:18;34.17;;;20.17;;
11608;SDS011;5860;52.018;8.536;2024-03-22T06:29:44;32.47;;;20.87;;
11608;SDS011;5860;52.018;8.536;2024-03-22T06:32:10;35.70;;;20.20;;
11608;SDS011;5860;52.018;8.536;2024-03-22T06:34:37;37.33;;;20.37;;
11608;SDS011;5860;52.018;8.536;2024-03-22T06:37:03;33.00;;;20.50;;
11608;SDS011;5860;52.018;8.536;2024-03-22T06:39:29;30.77;;;20.27;;
11608;SDS011;5860;52.018;8.536;2024-03-22T06:41:55;32.27;;;19.17;;
11608;SDS011;5860;52.018;8.536;2024-03-22T06:44:21;32.47;;;20.37;;
11608;SDS011;5860;52.018;8.536;2024-03-22T06:46:47;31.10;;;19.00;;
11608;SDS011;5860;52.018;8.536;2024-03-22T06:49:13;29.07;;;18.37;;
11608;SDS011;5860;52.018;8.536;2024-03-22T06:51:39;29.27;;;18.60;;
11608;SDS011;5860;52.018;8.536;2024-03-22T06:54:05;30.17;;;19.37;;
11608;SDS011;5860;52.018;8.536;2024-03-22T06:56:31;30.97;;;18.67;;
11608;SDS011;5860;52.018;8.536;2024-03-22T06:58:57;30.33;;;17.93;;
11608;SDS011;5860;52.018;8.536;2024-03-22T07:01:23;31.07;;;18.57;;
11608;SDS011;5860;52.018;8.536;2024-03-22T07:03:49;29.80;;;18.90;;
11608;SDS011;5860;52.018;8.536;2024-03-22T07:06:15;25.90;;;17.67;;
11608;SDS011;5860;52.018;8.536;2024-03-22T07:08:41;29.50;;;18.23;;
11608;SDS011;5860;52.018;8.536;2024-03-22T07:11:07;29.43;;;18.53;;
11608;SDS011;5860;52.018;8.536;2024-03-22T07:13:34;29.70;;;17.87;;
11608;SDS011;5860;52.018;8.536;2024-03-22T07:16:00;28.30;;;17.23;;
11608;SDS011;5860;52.018;8.536;2024-03-22T07:18:26;30.03;;;18.20;;
11608;SDS011;5860;52.018;8.536;2024-03-22T07:20:52;30.13;;;19.13;;
11608;SDS011;5860;52.018;8.536;2024-03-22T07:23:17;22.57;;;16.30;;
11608;SDS011;5860;52.018;8.536;2024-03-22T07:25:43;24.97;;;16.83;;
11608;SDS011;5860;52.018;8.536;2024-03-22T07:28:11;23.90;;;16.00;;
11608;SDS011;5860;52.018;8.536;2024-03-22T07:30:37;22.70;;;16.83;;
11608;SDS011;5860;52.018;8.536;2024-03-22T07:33:03;20.30;;;15.27;;
11608;SDS011;5860;52.018;8.536;2024-03-22T07:35:29;24.17;;;15.77;;
11608;SDS011;5860;52.018;8.536;2024-03-22T07:37:56;26.03;;;16.93;;
11608;SDS011;5860;52.018;8.536;2024-03-22T07:40:22;23.13;;;15.73;;
11608;SDS011;5860;52.018;8.536;2024-03-22T07:42:48;24.93;;;14.93;;
11608;SDS011;5860;52.018;8.536;2024-03-22T07:45:14;22.53;;;15.43;;
11608;SDS011;5860;52.018;8.536;2024-03-22T07:47:40;21.33;;;15.40;;
11608;SDS011;5860;52.018;8.536;2024-03-22T07:50:07;21.63;;;14.97;;
11608;SDS011;5860;52.018;8.536;2024-03-22T07:52:34;27.70;;;15.53;;
11608;SDS011;5860;52.018;8.536;2024-03-22T07:55:00;23.00;;;15.50;;
11608;SDS011;5860;52.018;8.536;2024-03-22T07:57:28;20.90;;;15.63;;
11608;SDS011;5860;52.018;8.536;2024-03-22T07:59:56;23.87;;;14.33;;
11608;SDS011;5860;52.018;8.536;2024-03-22T08:02:23;22.60;;;15.63;;
11608;SDS011;5860;52.018;8.536;2024-03-22T08:04:49;22.13;;;14.53;;
11608;SDS011;5860;52.018;8.536;2024-03-22T08:07:15;21.40;;;15.07;;
11608;SDS011;5860;52.018;8.536;2024-03-22T08:09:41;24.47;;;15.10;;
11608;SDS011;5860;52.018;8.536;2024-03-22T08:12:07;21.73;;;14.07;;
11608;SDS011;5860;52.018;8.536;2024-03-22T08:14:33;20.17;;;13.60;;
11608;SDS011;5860;52.018;8.536;2024-03-22T08:16:59;20.20;;;14.03;;
11608;SDS011;5860;52.018;8.536;2024-03-22T08:19:25;26.73;;;15.13;;
11608;SDS011;5860;52.018;8.536;2024-03-22T08:21:51;24.23;;;15.10;;
11608;SDS011;5860;52.018;8.536;2024-03-22T08:24:18;24.80;;;14.20;;
11608;SDS011;5860;52.018;8.536;2024-03-22T08:26:44;20.93;;;14.77;;
11608;SDS011;5860;52.018;8.536;2024-03-22T08:29:15;26.13;;;14.87;;
11608;SDS011;5860;52.018;8.536;2024-03-22T08:31:41;20.47;;;14.93;;
11608;SDS011;5860;52.018;8.536;2024-03-22T08:34:07;22.43;;;14.47;;
11608;SDS011;5860;52.018;8.536;2024-03-22T08:36:34;19.80;;;13.57;;
11608;SDS011;5860;52.018;8.536;2024-03-22T08:39:00;18.90;;;15.13;;
11608;SDS011;5860;52.018;8.536;2024-03-22T08:41:26;20.47;;;14.07;;
11608;SDS011;5860;52.018;8.536;2024-03-22T08:43:52;21.37;;;14.80;;
11608;SDS011;5860;52.018;8.536;2024-03-22T08:46:18;22.30;;;14.33;;
11608;SDS011;5860;52.018;8.536;2024-03-22T08:48:46;20.40;;;13.77;;
11608;SDS011;5860;52.018;8.536;2024-03-22T08:51:13;22.87;;;14.87;;
11608;SDS011;5860;52.018;8.536;2024-03-22T08:53:38;25.00;;;14.60;;
11608;SDS011;5860;52.018;8.536;2024-03-22T08:56:04;20.93;;;14.23;;
11608;SDS011;5860;52.018;8.536;2024-03-22T08:58:30;27.10;;;13.07;;
11608;SDS011;5860;52.018;8.536;2024-03-22T09:00:56;18.13;;;12.70;;
11608;SDS011;5860;52.018;8.536;2024-03-22T09:03:22;24.40;;;13.60;;
11608;SDS011;5860;52.018;8.536;2024-03-22T09:05:51;19.97;;;14.20;;
11608;SDS011;5860;52.018;8.536;2024-03-22T09:08:18;21.23;;;12.93;;
11608;SDS011;5860;52.018;8.536;2024-03-22T09:10:45;20.27;;;13.43;;
11608;SDS011;5860;52.018;8.536;2024-03-22T09:13:18;18.37;;;13.03;;
11608;SDS011;5860;52.018;8.536;2024-03-22T09:15:44;19.70;;;13.33;;
11608;SDS011;5860;52.018;8.536;2024-03-22T09:18:10;17.77;;;12.60;;
11608;SDS011;5860;52.018;8.536;2024-03-22T09:20:36;20.53;;;11.80;;
11608;SDS011;5860;52.018;8.536;2024-03-22T09:23:02;17.50;;;11.93;;
11608;SDS011;5860;52.018;8.536;2024-03-22T09:25:29;16.10;;;12.13;;
11608;SDS011;5860;52.018;8.536;2024-03-22T09:27:56;17.57;;;11.70;;
11608;SDS011;5860;52.018;8.536;2024-03-22T09:30:22;19.53;;;13.13;;
11608;SDS011;5860;52.018;8.536;2024-03-22T09:32:49;17.33;;;12.53;;
11608;SDS011;5860;52.018;8.536;2024-03-22T09:35:16;17.93;;;12.30;;
11608;SDS011;5860;52.018;8.536;2024-03-22T09:37:43;16.13;;;12.10;;
11608;SDS011;5860;52.018;8.536;2024-03-22T09:40:09;18.27;;;13.10;;
11608;SDS011;5860;52.018;8.536;2024-03-22T09:42:38;16.47;;;12.83;;
11608;SDS011;5860;52.018;8.536;2024-03-22T09:45:07;17.20;;;11.63;;
11608;SDS011;5860;52.018;8.536;2024-03-22T09:47:36;15.60;;;12.37;;
11608;SDS011;5860;52.018;8.536;2024-03-22T09:50:03;18.80;;;13.27;;
11608;SDS011;5860;52.018;8.536;2024-03-22T09:52:32;20.13;;;12.97;;
11608;SDS011;5860;52.018;8.536;2024-03-22T09:54:58;18.90;;;12.30;;
11608;SDS011;5860;52.018;8.536;2024-03-22T09:57:24;20.83;;;11.63;;
11608;SDS011;5860;52.018;8.536;2024-03-22T09:59:51;15.70;;;10.93;;
11608;SDS011;5860;52.018;8.536;2024-03-22T10:02:18;18.70;;;11.77;;
11608;SDS011;5860;52.018;8.536;2024-03-22T10:04:44;19.00;;;11.97;;
11608;SDS011;5860;52.018;8.536;2024-03-22T10:07:10;16.63;;;11.97;;
11608;SDS011;5860;52.018;8.536;2024-03-22T10:09:36;15.60;;;12.43;;
11608;SDS011;5860;52.018;8.536;2024-03-22T10:12:03;22.97;;;12.20;;
11608;SDS011;5860;52.018;8.536;2024-03-22T10:14:29;16.97;;;12.30;;
11608;SDS011;5860;52.018;8.536;2024-03-22T10:16:56;19.00;;;11.37;;
11608;SDS011;5860;52.018;8.536;2024-03-22T10:19:23;16.23;;;11.33;;
11608;SDS011;5860;52.018;8.536;2024-03-22T10:21:59;20.10;;;11.13;;
11608;SDS011;5860;52.018;8.536;2024-03-22T10:24:25;18.33;;;12.03;;
11608;SDS011;5860;52.018;8.536;2024-03-22T10:26:52;15.67;;;12.00;;
11608;SDS011;5860;52.018;8.536;2024-03-22T10:29:18;18.47;;;12.07;;
11608;SDS011;5860;52.018;8.536;2024-03-22T10:31:45;14.87;;;11.80;;
11608;SDS011;5860;52.018;8.536;2024-03-22T10:34:13;15.87;;;12.10;;
11608;SDS011;5860;52.018;8.536;2024-03-22T10:36:40;16.87;;;11.30;;
11608;SDS011;5860;52.018;8.536;2024-03-22T10:39:06;23.10;;;12.53;;
11608;SDS011;5860;52.018;8.536;2024-03-22T10:41:34;20.93;;;12.40;;
11608;SDS011;5860;52.018;8.536;2024-03-22T10:44:00;15.10;;;11.40;;
11608;SDS011;5860;52.018;8.536;2024-03-22T10:46:30;18.73;;;12.23;;
11608;SDS011;5860;52.018;8.536;2024-03-22T10:48:59;19.67;;;12.87;;
11608;SDS011;5860;52.018;8.536;2024-03-22T10:51:30;18.93;;;12.03;;
11608;SDS011;5860;52.018;8.536;2024-03-22T10:53:58;16.07;;;11.97;;
11608;SDS011;5860;52.018;8.536;2024-03-22T10:56:28;17.47;;;11.87;;
11608;SDS011;5860;52.018;8.536;2024-03-22T10:58:55;16.47;;;11.80;;
11608;SDS011;5860;52.018;8.536;2024-03-22T11:01:25;15.17;;;11.23;;
11608;SDS011;5860;52.018;8.536;2024-03-22T11:04:02;15.80;;;11.07;;
11608;SDS011;5860;52.018;8.536;2024-03-22T11:06:30;15.50;;;11.27;;
11608;SDS011;5860;52.018;8.536;2024-03-22T11:08:58;15.70;;;11.07;;
11608;SDS011;5860;52.018;8.536;2024-03-22T11:11:30;16.97;;;11.53;;
11608;SDS011;5860;52.018;8.536;2024-03-22T11:14:02;17.20;;;10.87;;
11608;SDS011;5860;52.018;8.536;2024-03-22T11:16:28;18.23;;;11.67;;
11608;SDS011;5860;52.018;8.536;2024-03-22T11:18:55;20.20;;;11.00;;
11608;SDS011;5860;52.018;8.536;2024-03-22T11:21:21;18.73;;;11.10;;
11608;SDS011;5860;52.018;8.536;2024-03-22T11:23:47;13.97;;;10.43;;
11608;SDS011;5860;52.018;8.536;2024-03-22T11:26:13;16.50;;;12.23;;
11608;SDS011;5860;52.018;8.536;2024-03-22T11:28:39;17.60;;;11.73;;
11608;SDS011;5860;52.018;8.536;2024-03-22T11:31:05;15.70;;;11.47;;
11608;SDS011;5860;52.018;8.536;2024-03-22T11:33:32;15.23;;;11.37;;
11608;SDS011;5860;52.018;8.536;2024-03-22T11:35:58;15.13;;;11.83;;
11608;SDS011;5860;52.018;8.536;2024-03-22T11:38:28;16.03;;;11.07;;
11608;SDS011;5860;52.018;8.536;2024-03-22T11:40:56;16.67;;;11.87;;
11608;SDS011;5860;52.018;8.536;2024-03-22T11:43:25;18.10;;;11.53;;
11608;SDS011;5860;52.018;8.536;2024-03-22T11:45:53;18.27;;;11.77;;
11608;SDS011;5860;52.018;8.536;2024-03-22T11:48:22;17.17;;;11.37;;
11608;SDS011;5860;52.018;8.536;2024-03-22T11:50:49;17.13;;;12.40;;
11608;SDS011;5860;52.018;8.536;2024-03-22T11:53:15;19.93;;;13.80;;
11608;SDS011;5860;52.018;8.536;2024-03-22T11:55:42;19.67;;;13.63;;
11608;SDS011;5860;52.018;8.536;2024-03-22T11:58:09;18.13;;;13.63;;
11608;SDS011;5860;52.018;8.536;2024-03-22T12:00:36;19.43;;;14.10;;
11608;SDS011;5860;52.018;8.536;2024-03-22T12:03:05;18.67;;;14.67;;
11608;SDS011;5860;52.018;8.536;2024-03-22T12:05:31;19.07;;;14.73;;
11608;SDS011;5860;52.018;8.536;2024-03-22T12:07:57;19.87;;;14.73;;
11608;SDS011;5860;52.018;8.536;2024-03-22T12:10:24;19.93;;;14.77;;
11608;SDS011;5860;52.018;8.536;2024-03-22T12:12:49;21.03;;;14.53;;
11608;SDS011;5860;52.018;8.536;2024-03-22T12:15:15;33.93;;;16.73;;
11608;SDS011;5860;52.018;8.536;2024-03-22T12:17:41;20.70;;;14.33;;
11608;SDS011;5860;52.018;8.536;2024-03-22T12:20:08;21.80;;;15.43;;
11608;SDS011;5860;52.018;8.536;2024-03-22T12:22:35;21.23;;;16.00;;
11608;SDS011;5860;52.018;8.536;2024-03-22T12:25:01;23.87;;;16.20;;
11608;SDS011;5860;52.018;8.536;2024-03-22T12:27:27;19.57;;;15.50;;
11608;SDS011;5860;52.018;8.536;2024-03-22T12:29:53;21.00;;;15.20;;
11608;SDS011;5860;52.018;8.536;2024-03-22T12:32:19;22.27;;;16.63;;
11608;SDS011;5860;52.018;8.536;2024-03-22T12:34:46;23.10;;;17.37;;
11608;SDS011;5860;52.018;8.536;2024-03-22T12:37:12;24.30;;;16.97;;
11608;SDS011;5860;52.018;8.536;2024-03-22T12:39:39;27.17;;;17.50;;
11608;SDS011;5860;52.018;8.536;2024-03-22T12:42:05;23.33;;;16.33;;
11608;SDS011;5860;52.018;8.536;2024-03-22T12:44:31;23.50;;;16.73;;
11608;SDS011;5860;52.018;8.536;2024-03-22T12:46:57;23.40;;;15.80;;
11608;SDS011;5860;52.018;8.536;2024-03-22T12:49:24;20.77;;;16.53;;
11608;SDS011;5860;52.018;8.536;2024-03-22T12:51:50;22.50;;;16.13;;
11608;SDS011;5860;52.018;8.536;2024-03-22T12:54:16;23.50;;;15.93;;
11608;SDS011;5860;52.018;8.536;2024-03-22T12:56:44;20.53;;;15.87;;
11608;SDS011;5860;52.018;8.536;2024-03-22T12:59:10;23.63;;;16.43;;
11608;SDS011;5860;52.018;8.536;2024-03-22T13:01:36;23.40;;;17.10;;
11608;SDS011;5860;52.018;8.536;2024-03-22T13:04:03;25.30;;;17.20;;
11608;SDS011;5860;52.018;8.536;2024-03-22T13:06:29;21.20;;;16.33;;
11608;SDS011;5860;52.018;8.536;2024-03-22T13:08:55;22.43;;;17.30;;
11608;SDS011;5860;52.018;8.536;2024-03-22T13:11:21;20.00;;;16.93;;
11608;SDS011;5860;52.018;8.536;2024-03-22T13:13:47;23.73;;;18.80;;
11608;SDS011;5860;52.018;8.536;2024-03-22T13:16:13;23.93;;;18.77;;
11608;SDS011;5860;52.018;8.536;2024-03-22T13:18:40;24.17;;;18.27;;
11608;SDS011;5860;52.018;8.536;2024-03-22T13:21:07;25.37;;;18.20;;
11608;SDS011;5860;52.018;8.536;2024-03-22T13:23:33;24.40;;;18.53;;
11608;SDS011;5860;52.018;8.536;2024-03-22T13:26:05;24.20;;;18.07;;
11608;SDS011;5860;52.018;8.536;2024-03-22T13:28:32;25.80;;;19.13;;
11608;SDS011;5860;52.018;8.536;2024-03-22T13:31:02;25.07;;;18.17;;
11608;SDS011;5860;52.018;8.536;2024-03-22T13:33:29;27.10;;;18.10;;
11608;SDS011;5860;52.018;8.536;2024-03-22T13:35:55;23.50;;;19.20;;
11608;SDS011;5860;52.018;8.536;2024-03-22T13:38:21;26.43;;;18.43;;
11608;SDS011;5860;52.018;8.536;2024-03-22T13:40:57;25.80;;;18.63;;
11608;SDS011;5860;52.018;8.536;2024-03-22T13:43:27;26.43;;;19.20;;
11608;SDS011;5860;52.018;8.536;2024-03-22T13:45:53;30.87;;;21.67;;
11608;SDS011;5860;52.018;8.536;2024-03-22T13:48:21;28.83;;;21.00;;
11608;SDS011;5860;52.018;8.536;2024-03-22T13:50:51;26.33;;;20.67;;
11608;SDS011;5860;52.018;8.536;2024-03-22T13:53:18;30.20;;;21.53;;
11608;SDS011;5860;52.018;8.536;2024-03-22T13:55:44;28.70;;;21.20;;
11608;SDS011;5860;52.018;8.536;2024-03-22T13:58:11;30.17;;;21.47;;
11608;SDS011;5860;52.018;8.536;2024-03-22T14:00:37;26.73;;;20.17;;
11608;SDS011;5860;52.018;8.536;2024-03-22T14:03:04;31.00;;;21.27;;
11608;SDS011;5860;52.018;8.536;2024-03-22T14:05:30;29.47;;;20.37;;
11608;SDS011;5860;52.018;8.536;2024-03-22T14:07:57;28.00;;;21.67;;
11608;SDS011;5860;52.018;8.536;2024-03-22T14:10:24;31.70;;;22.63;;
11608;SDS011;5860;52.018;8.536;2024-03-22T14:12:52;30.43;;;22.17;;
11608;SDS011;5860;52.018;8.536;2024-03-22T14:15:18;30.37;;;21.10;;
11608;SDS011;5860;52.018;8.536;2024-03-22T14:17:44;29.57;;;21.80;;
11608;SDS011;5860;52.018;8.536;2024-03-22T14:20:11;33.47;;;22.70;;
11608;SDS011;5860;52.018;8.536;2024-03-22T14:22:40;32.50;;;22.20;;
11608;SDS011;5860;52.018;8.536;2024-03-22T14:25:07;30.67;;;22.50;;
11608;SDS011;5860;52.018;8.536;2024-03-22T14:27:34;32.67;;;22.87;;
11608;SDS011;5860;52.018;8.536;2024-03-22T14:30:01;31.47;;;21.63;;